Time;durP1;ratioP1;P1;durP2;ratioP2;P2;SDS_P1;SDS_P2;PMS_P1;PMS_P2;Temp;Humidity;BMP_temperature;BMP_pressure;BME280_temperature;BME280_humidity;BME280_pressure;Samples;Min_cycle;Max_cycle;Signal;HPM_P1;HPM_P2
2022/09/09 00:00:42;;;;;;;;;;;23.30;44.80;;;;;;8330295;28;19932;-43
2022/09/09 00:04:45;;;;;;;;;;;23.30;44.80;;;;;;8330377;28;20333;-42
2022/09/09 00:09:00;;;;;;;;;;;23.30;44.90;;;;;;8336600;28;19924;-44
2022/09/09 00:13:19;;;;;;;;;;;23.30;44.90;;;;;;8337180;28;19924;-43
2022/09/09 00:17:35;;;;;;;;;;;23.20;44.80;;;;;;8336358;28;20005;-42
2022/09/09 00:21:37;;;;;;;;;;;23.20;44.80;;;;;;8336806;28;19940;-44
2022/09/09 00:25:40;;;;;;;;;;;23.20;44.90;;;;;;8336420;28;20267;-43
2022/09/09 00:30:08;;;;;;;;;;;23.20;44.90;;;;;;8335879;28;19917;-43
2022/09/09 00:34:12;;;;;;;;;;;23.20;44.90;;;;;;8313775;28;19913;-43
2022/09/09 00:38:14;;;;;;;;;;;23.20;44.90;;;;;;8336359;28;19936;-44
2022/09/09 00:42:15;;;;;;;;;;;23.20;44.90;;;;;;8335988;28;19924;-42
2022/09/09 00:46:34;;;;;;;;;;;23.20;44.90;;;;;;8336168;28;20374;-43
2022/09/09 00:50:52;;;;;;;;;;;23.20;44.90;;;;;;8335273;28;19925;-42
2022/09/09 00:54:52;;;;;;;;;;;23.20;44.90;;;;;;8336007;28;20301;-43
2022/09/09 00:59:00;;;;;;;;;;;23.20;44.90;;;;;;8335544;28;19925;-43
2022/09/09 01:03:20;;;;;;;;;;;23.20;44.90;;;;;;8334675;28;19917;-43
2022/09/09 01:07:21;;;;;;;;;;;23.20;45.00;;;;;;8349231;28;19987;-46
2022/09/09 01:11:21;;;;;;;;;;;23.20;45.00;;;;;;8347184;28;19996;-44
2022/09/09 01:15:24;;;;;;;;;;;23.20;45.00;;;;;;8335260;28;20356;-48
2022/09/09 01:19:36;;;;;;;;;;;23.10;45.00;;;;;;8333868;28;20259;-46
2022/09/09 01:23:55;;;;;;;;;;;23.10;45.00;;;;;;8334682;28;19967;-44
2022/09/09 01:27:57;;;;;;;;;;;23.10;45.10;;;;;;8334677;28;19925;-45
2022/09/09 01:31:59;;;;;;;;;;;23.10;45.10;;;;;;8334807;28;19917;-44
2022/09/09 01:36:06;;;;;;;;;;;23.10;45.10;;;;;;8333917;28;20285;-43
2022/09/09 01:40:07;;;;;;;;;;;23.10;45.10;;;;;;8334423;28;20271;-44
2022/09/09 01:44:08;;;;;;;;;;;23.10;45.10;;;;;;8333983;28;19932;-44
2022/09/09 01:48:08;;;;;;;;;;;23.10;45.10;;;;;;8333769;28;19918;-44
2022/09/09 01:52:08;;;;;;;;;;;23.10;45.70;;;;;;8333823;28;19917;-43
2022/09/09 01:56:35;;;;;;;;;;;23.10;45.10;;;;;;8333917;28;19920;-44
2022/09/09 02:00:41;;;;;;;;;;;23.10;45.10;;;;;;8317366;28;19932;-44
2022/09/09 02:04:54;;;;;;;;;;;23.10;45.10;;;;;;8333539;28;19913;-43
2022/09/09 02:08:59;;;;;;;;;;;23.10;45.10;;;;;;8333288;28;20341;-44
2022/09/09 02:13:17;;;;;;;;;;;23.00;45.10;;;;;;8333228;28;19917;-44
2022/09/09 02:17:28;;;;;;;;;;;23.00;45.10;;;;;;8332726;28;19968;-45
2022/09/09 02:21:30;;;;;;;;;;;23.00;45.10;;;;;;8333084;28;19925;-43
2022/09/09 02:25:30;;;;;;;;;;;23.00;45.10;;;;;;8332896;28;19917;-43
2022/09/09 02:29:36;;;;;;;;;;;23.00;45.10;;;;;;8332091;28;20345;-44
2022/09/09 02:33:45;;;;;;;;;;;23.00;45.20;;;;;;8332909;28;20373;-45
2022/09/09 02:37:46;;;;;;;;;;;23.00;45.20;;;;;;8332279;28;19925;-43
2022/09/09 02:41:47;;;;;;;;;;;23.00;45.20;;;;;;8331886;28;20285;-44
2022/09/09 02:46:01;;;;;;;;;;;23.00;45.20;;;;;;8332553;28;20373;-45
2022/09/09 02:50:05;;;;;;;;;;;23.00;45.20;;;;;;8332055;28;19917;-43
2022/09/09 02:54:21;;;;;;;;;;;22.90;45.20;;;;;;8331785;28;20255;-43
2022/09/09 02:58:21;;;;;;;;;;;23.00;45.30;;;;;;8331638;28;19932;-45
2022/09/09 03:02:22;;;;;;;;;;;23.00;45.30;;;;;;8331219;28;19921;-45
2022/09/09 03:06:22;;;;;;;;;;;22.90;45.30;;;;;;8331549;28;19921;-43
2022/09/09 03:10:23;;;;;;;;;;;22.90;45.30;;;;;;8331469;28;20277;-44
2022/09/09 03:14:26;;;;;;;;;;;23.00;45.30;;;;;;8331131;28;19987;-44
2022/09/09 03:18:27;;;;;;;;;;;22.90;45.30;;;;;;8331055;28;19995;-43
2022/09/09 03:22:28;;;;;;;;;;;22.90;45.30;;;;;;8331074;28;19918;-43
2022/09/09 03:26:30;;;;;;;;;;;22.90;45.30;;;;;;8330629;28;19996;-44
2022/09/09 03:30:30;;;;;;;;;;;22.90;45.40;;;;;;8330802;28;19920;-45
2022/09/09 03:34:31;;;;;;;;;;;22.90;45.40;;;;;;8331066;28;20421;-45
2022/09/09 03:38:31;;;;;;;;;;;22.90;45.40;;;;;;8330087;28;19967;-43
2022/09/09 03:42:32;;;;;;;;;;;22.90;45.40;;;;;;8330149;28;19921;-45
2022/09/09 03:46:33;;;;;;;;;;;22.90;45.40;;;;;;8330632;28;19917;-43
2022/09/09 03:50:34;;;;;;;;;;;22.90;45.40;;;;;;8329871;28;19948;-44
2022/09/09 03:54:35;;;;;;;;;;;22.90;45.50;;;;;;8330608;28;20011;-44
2022/09/09 03:58:36;;;;;;;;;;;22.90;46.00;;;;;;8330453;28;19932;-44
2022/09/09 04:02:36;;;;;;;;;;;22.80;45.40;;;;;;8329844;28;20342;-44
2022/09/09 04:06:36;;;;;;;;;;;22.90;45.50;;;;;;8327710;28;19924;-45
2022/09/09 04:10:37;;;;;;;;;;;22.80;45.40;;;;;;8330109;28;20000;-45
2022/09/09 04:14:37;;;;;;;;;;;22.80;45.50;;;;;;8329791;28;19966;-45
2022/09/09 04:18:38;;;;;;;;;;;22.80;45.50;;;;;;8329920;28;20384;-44
2022/09/09 04:22:39;;;;;;;;;;;22.80;45.50;;;;;;8330288;28;19917;-44
2022/09/09 04:26:39;;;;;;;;;;;22.80;45.50;;;;;;8329943;28;19924;-44
2022/09/09 04:30:40;;;;;;;;;;;22.80;45.60;;;;;;8330074;28;19913;-43
2022/09/09 04:34:41;;;;;;;;;;;22.80;45.50;;;;;;8330166;28;20305;-43
2022/09/09 04:38:41;;;;;;;;;;;22.80;45.60;;;;;;8329179;28;19926;-43
2022/09/09 04:42:43;;;;;;;;;;;22.80;45.60;;;;;;8329919;28;20051;-44
2022/09/09 04:46:44;;;;;;;;;;;22.80;45.60;;;;;;8329781;28;19917;-43
2022/09/09 04:50:53;;;;;;;;;;;22.80;45.60;;;;;;8329302;28;19925;-43
2022/09/09 04:54:53;;;;;;;;;;;22.80;45.60;;;;;;8335954;28;19917;-44
2022/09/09 04:58:55;;;;;;;;;;;22.80;45.60;;;;;;8335462;28;19925;-44
2022/09/09 05:02:55;;;;;;;;;;;22.70;45.60;;;;;;8334956;28;19961;-43
2022/09/09 05:06:56;;;;;;;;;;;22.70;45.60;;;;;;8335478;28;19920;-44
2022/09/09 05:10:56;;;;;;;;;;;22.70;45.60;;;;;;8335242;28;19921;-44
2022/09/09 05:14:56;;;;;;;;;;;22.70;45.60;;;;;;8334844;28;19917;-44
2022/09/09 05:18:57;;;;;;;;;;;22.70;45.60;;;;;;8334644;28;19925;-45
2022/09/09 05:22:57;;;;;;;;;;;22.70;45.60;;;;;;8334816;28;19913;-45
2022/09/09 05:26:59;;;;;;;;;;;22.70;45.60;;;;;;8334214;28;19924;-43
2022/09/09 05:31:12;;;;;;;;;;;22.70;45.60;;;;;;8334837;28;20317;-43
2022/09/09 05:35:13;;;;;;;;;;;22.70;45.70;;;;;;8336062;28;19928;-44
2022/09/09 05:39:13;;;;;;;;;;;22.70;45.70;;;;;;8333775;28;19925;-44
2022/09/09 05:43:14;;;;;;;;;;;22.70;45.70;;;;;;8334093;28;19921;-45
2022/09/09 05:47:15;;;;;;;;;;;22.70;45.70;;;;;;8333659;28;19924;-44
2022/09/09 05:51:17;;;;;;;;;;;22.70;45.70;;;;;;8334152;28;19917;-43
2022/09/09 05:55:17;;;;;;;;;;;22.70;45.70;;;;;;8334269;28;19917;-44
2022/09/09 05:59:18;;;;;;;;;;;22.70;45.70;;;;;;8333185;28;19925;-45
2022/09/09 06:03:23;;;;;;;;;;;22.70;45.70;;;;;;8332969;28;20358;-46
2022/09/09 06:07:23;;;;;;;;;;;22.70;45.70;;;;;;8333716;28;19968;-45
2022/09/09 06:11:26;;;;;;;;;;;22.70;45.60;;;;;;8332978;28;20424;-46
2022/09/09 06:15:26;;;;;;;;;;;22.70;45.60;;;;;;8333347;28;20009;-48
2022/09/09 06:19:27;;;;;;;;;;;22.80;45.50;;;;;;8362191;28;19937;-46
2022/09/09 06:23:28;;;;;;;;;;;22.80;45.40;;;;;;8365454;28;20397;-46
2022/09/09 06:27:28;;;;;;;;;;;22.80;45.40;;;;;;8366102;28;19917;-45
2022/09/09 06:31:30;;;;;;;;;;;22.80;45.40;;;;;;8365892;28;19917;-44
2022/09/09 06:35:30;;;;;;;;;;;22.80;45.50;;;;;;8365189;28;19927;-46
2022/09/09 06:39:30;;;;;;;;;;;22.70;45.50;;;;;;8365257;28;19925;-45
2022/09/09 06:43:31;;;;;;;;;;;22.70;45.60;;;;;;8365375;28;19917;-46
2022/09/09 06:47:33;;;;;;;;;;;22.70;45.60;;;;;;8364747;28;19917;-44
2022/09/09 06:51:35;;;;;;;;;;;22.70;45.60;;;;;;8365237;28;20396;-45
2022/09/09 06:55:35;;;;;;;;;;;22.80;45.70;;;;;;8365114;28;19913;-45
2022/09/09 06:59:36;;;;;;;;;;;22.70;45.60;;;;;;8364355;28;20016;-45
2022/09/09 07:03:37;;;;;;;;;;;22.70;45.70;;;;;;8364634;28;19962;-46
2022/09/09 07:07:37;;;;;;;;;;;22.70;45.70;;;;;;8356021;28;19918;-44
2022/09/09 07:11:39;;;;;;;;;;;22.70;45.70;;;;;;8301313;28;20451;-45
2022/09/09 07:15:40;;;;;;;;;;;22.70;45.70;;;;;;8330706;28;19936;-44
2022/09/09 07:19:41;;;;;;;;;;;22.70;45.70;;;;;;8331283;28;19925;-44
2022/09/09 07:23:41;;;;;;;;;;;22.70;45.70;;;;;;8330724;28;19974;-44
2022/09/09 07:27:42;;;;;;;;;;;22.70;45.70;;;;;;8331337;28;19923;-45
2022/09/09 07:31:42;;;;;;;;;;;22.70;45.70;;;;;;8330955;28;19917;-44
2022/09/09 07:35:43;;;;;;;;;;;22.80;45.70;;;;;;8330438;28;19921;-44
2022/09/09 07:39:43;;;;;;;;;;;22.70;45.70;;;;;;8330828;28;20019;-44
2022/09/09 07:43:44;;;;;;;;;;;22.80;45.70;;;;;;8330550;28;19918;-46
2022/09/09 07:47:45;;;;;;;;;;;22.80;45.70;;;;;;8330121;28;19928;-45
2022/09/09 07:51:47;;;;;;;;;;;22.70;45.70;;;;;;8330461;28;19920;-45
2022/09/09 07:55:47;;;;;;;;;;;22.80;45.80;;;;;;8330895;28;19918;-46
2022/09/09 07:59:48;;;;;;;;;;;22.70;45.70;;;;;;8330184;28;20451;-44
2022/09/09 08:04:01;;;;;;;;;;;22.80;45.80;;;;;;8330248;28;20298;-43
2022/09/09 08:08:03;;;;;;;;;;;22.80;45.80;;;;;;8330403;28;20366;-44
2022/09/09 08:12:05;;;;;;;;;;;22.70;46.30;;;;;;8329819;28;19960;-45
2022/09/09 08:16:06;;;;;;;;;;;22.80;45.90;;;;;;8330372;28;19920;-46
2022/09/09 08:20:07;;;;;;;;;;;22.80;45.90;;;;;;8330002;28;19925;-46
2022/09/09 08:24:10;;;;;;;;;;;22.80;45.90;;;;;;8329571;28;20004;-48
2022/09/09 08:28:10;;;;;;;;;;;22.80;45.90;;;;;;8334213;28;19921;-46
2022/09/09 08:32:11;;;;;;;;;;;22.80;45.90;;;;;;8336325;28;19918;-46
2022/09/09 08:36:13;;;;;;;;;;;22.80;45.90;;;;;;8336085;28;19921;-49
2022/09/09 08:40:21;;;;;;;;;;;22.80;45.90;;;;;;8336388;28;19933;-44
2022/09/09 08:44:33;;;;;;;;;;;22.80;45.90;;;;;;8335578;28;19920;-45
2022/09/09 08:48:42;;;;;;;;;;;22.80;45.90;;;;;;8336013;28;19917;-43
2022/09/09 08:52:54;;;;;;;;;;;22.90;46.00;;;;;;8336015;28;20370;-45
2022/09/09 08:56:56;;;;;;;;;;;22.80;45.90;;;;;;8335499;28;19951;-44
2022/09/09 09:01:06;;;;;;;;;;;22.90;46.00;;;;;;8335490;28;19925;-44
2022/09/09 09:05:17;;;;;;;;;;;22.90;46.00;;;;;;8335546;28;19917;-44
2022/09/09 09:09:41;;;;;;;;;;;22.90;46.00;;;;;;8334951;28;19917;-46
2022/09/09 09:13:55;;;;;;;;;;;22.90;45.90;;;;;;8335210;28;19914;-45
2022/09/09 09:17:55;;;;;;;;;;;22.90;45.90;;;;;;8334413;28;19925;-44
2022/09/09 09:22:06;;;;;;;;;;;22.90;45.90;;;;;;8335108;28;19982;-44
2022/09/09 09:26:09;;;;;;;;;;;22.90;45.90;;;;;;8334958;28;20297;-46
2022/09/09 09:30:17;;;;;;;;;;;22.90;45.90;;;;;;8334088;28;19928;-45
2022/09/09 09:34:18;;;;;;;;;;;22.90;46.00;;;;;;8334492;28;19964;-45
2022/09/09 09:38:22;;;;;;;;;;;22.90;45.90;;;;;;8341498;28;20348;-43
2022/09/09 09:42:22;;;;;;;;;;;23.00;45.90;;;;;;8367114;28;20431;-43
2022/09/09 09:46:25;;;;;;;;;;;23.00;45.90;;;;;;8367279;28;19972;-44
2022/09/09 09:50:25;;;;;;;;;;;23.00;45.90;;;;;;8366682;28;19927;-44
2022/09/09 09:54:28;;;;;;;;;;;23.00;45.80;;;;;;8366962;28;20421;-45
2022/09/09 09:58:44;;;;;;;;;;;23.00;45.80;;;;;;8366653;28;20012;-42
2022/09/09 10:02:45;;;;;;;;;;;23.00;45.80;;;;;;8366145;28;20373;-43
2022/09/09 10:06:46;;;;;;;;;;;23.00;46.20;;;;;;8322316;28;19960;-43
2022/09/09 10:10:55;;;;;;;;;;;23.10;45.70;;;;;;8327843;28;20374;-44
2022/09/09 10:15:19;;;;;;;;;;;23.10;45.70;;;;;;8332845;28;19917;-45
2022/09/09 10:19:31;;;;;;;;;;;23.10;45.70;;;;;;8333069;28;20389;-45
2022/09/09 10:23:49;;;;;;;;;;;23.10;45.70;;;;;;8332736;28;19951;-45
2022/09/09 10:27:56;;;;;;;;;;;23.10;45.60;;;;;;8333001;28;19913;-44
2022/09/09 10:31:56;;;;;;;;;;;23.20;45.60;;;;;;8333256;28;20000;-46
2022/09/09 10:36:03;;;;;;;;;;;23.20;45.60;;;;;;8332160;28;19979;-45
2022/09/09 10:40:26;;;;;;;;;;;23.20;45.50;;;;;;8332699;28;19935;-43
2022/09/09 10:44:39;;;;;;;;;;;23.20;45.60;;;;;;8331911;28;19963;-45
2022/09/09 10:48:54;;;;;;;;;;;23.20;45.50;;;;;;8332160;28;20012;-44
2022/09/09 10:53:14;;;;;;;;;;;23.20;45.50;;;;;;8332140;28;20004;-45
2022/09/09 10:57:40;;;;;;;;;;;23.20;45.50;;;;;;8332024;28;19921;-44
2022/09/09 11:01:53;;;;;;;;;;;23.20;45.40;;;;;;8328699;28;20279;-43
2022/09/09 11:06:01;;;;;;;;;;;23.20;45.40;;;;;;8331444;28;19917;-44
2022/09/09 11:10:06;;;;;;;;;;;23.20;45.40;;;;;;8331536;28;19917;-44
2022/09/09 11:14:17;;;;;;;;;;;23.30;45.40;;;;;;8331239;28;20008;-43
2022/09/09 11:18:22;;;;;;;;;;;23.30;45.40;;;;;;8331088;28;20075;-44
2022/09/09 11:22:34;;;;;;;;;;;23.30;45.30;;;;;;8331534;28;19921;-44
2022/09/09 11:26:40;;;;;;;;;;;23.30;45.20;;;;;;8330845;28;19925;-43
2022/09/09 11:30:56;;;;;;;;;;;23.30;45.20;;;;;;8330943;28;19963;-43
2022/09/09 11:35:02;;;;;;;;;;;23.40;45.20;;;;;;8330790;28;19913;-43
2022/09/09 11:39:15;;;;;;;;;;;23.40;45.30;;;;;;8330238;28;19940;-43
2022/09/09 11:43:23;;;;;;;;;;;23.40;45.20;;;;;;8330867;28;20366;-42
2022/09/09 11:47:29;;;;;;;;;;;23.40;45.10;;;;;;8330318;28;19925;-44
2022/09/09 11:51:30;;;;;;;;;;;23.50;45.10;;;;;;8330386;28;19924;-43
2022/09/09 11:55:34;;;;;;;;;;;23.40;45.00;;;;;;8330435;28;19917;-44
2022/09/09 11:59:35;;;;;;;;;;;23.40;45.00;;;;;;8329842;28;19925;-44
2022/09/09 12:03:40;;;;;;;;;;;23.40;44.90;;;;;;8328369;28;19940;-45
2022/09/09 12:07:53;;;;;;;;;;;23.40;44.90;;;;;;8330742;28;19913;-44
2022/09/09 12:12:05;;;;;;;;;;;23.50;44.90;;;;;;8329575;28;19952;-44
2022/09/09 12:16:26;;;;;;;;;;;23.40;44.80;;;;;;8330237;28;19917;-45
2022/09/09 12:20:30;;;;;;;;;;;23.40;44.90;;;;;;8329462;28;19929;-43
2022/09/09 12:24:41;;;;;;;;;;;23.50;44.90;;;;;;8330140;28;20000;-43
2022/09/09 12:28:45;;;;;;;;;;;23.50;44.90;;;;;;8330012;28;19920;-44
2022/09/09 12:32:46;;;;;;;;;;;23.50;44.80;;;;;;8329748;28;19921;-43
2022/09/09 12:36:50;;;;;;;;;;;23.50;44.80;;;;;;8329913;28;19927;-41
2022/09/09 12:40:57;;;;;;;;;;;23.50;44.80;;;;;;8329736;28;20020;-46
2022/09/09 12:44:59;;;;;;;;;;;23.60;44.60;;;;;;8329158;28;20024;-42
2022/09/09 12:48:59;;;;;;;;;;;23.60;44.60;;;;;;8329624;28;19917;-42
2022/09/09 12:53:06;;;;;;;;;;;23.60;44.70;;;;;;8329752;28;20348;-42
2022/09/09 12:57:10;;;;;;;;;;;23.60;44.70;;;;;;8328968;28;19918;-43
2022/09/09 13:01:18;;;;;;;;;;;23.60;44.70;;;;;;8329517;28;20364;-44
2022/09/09 13:05:26;;;;;;;;;;;23.60;44.70;;;;;;8328357;28;20192;-43
2022/09/09 13:09:27;;;;;;;;;;;23.60;44.60;;;;;;8329603;28;19913;-43
2022/09/09 13:13:38;;;;;;;;;;;23.60;44.60;;;;;;8330792;28;19917;-42
2022/09/09 13:17:40;;;;;;;;;;;23.60;44.60;;;;;;8334562;28;19987;-45
2022/09/09 13:21:42;;;;;;;;;;;23.60;44.70;;;;;;8335163;28;19921;-45
2022/09/09 13:25:53;;;;;;;;;;;23.60;44.70;;;;;;8334772;28;19919;-45
2022/09/09 13:29:57;;;;;;;;;;;23.60;44.60;;;;;;8334237;28;20024;-44
2022/09/09 13:33:57;;;;;;;;;;;23.60;44.60;;;;;;8334528;28;19917;-43
2022/09/09 13:37:59;;;;;;;;;;;23.60;44.60;;;;;;8334447;28;20340;-42
2022/09/09 13:41:59;;;;;;;;;;;23.60;44.60;;;;;;8333757;28;20271;-43
2022/09/09 13:46:04;;;;;;;;;;;23.60;44.60;;;;;;8334159;28;19917;-42
2022/09/09 13:50:25;;;;;;;;;;;23.60;44.60;;;;;;8334224;28;19953;-43
2022/09/09 13:54:25;;;;;;;;;;;23.60;44.60;;;;;;8333693;28;19917;-45
2022/09/09 13:58:25;;;;;;;;;;;23.60;44.60;;;;;;8333975;28;19925;-44
2022/09/09 14:02:26;;;;;;;;;;;23.60;44.60;;;;;;8333369;28;20293;-44
2022/09/09 14:06:27;;;;;;;;;;;23.60;44.60;;;;;;8333604;28;19917;-44
2022/09/09 14:10:27;;;;;;;;;;;23.60;44.50;;;;;;8333560;28;19917;-44
2022/09/09 14:14:28;;;;;;;;;;;23.60;44.50;;;;;;8332889;28;20016;-44
2022/09/09 14:18:29;;;;;;;;;;;23.60;44.60;;;;;;8333740;28;20016;-44
2022/09/09 14:22:29;;;;;;;;;;;23.60;44.50;;;;;;8333229;28;19917;-43
2022/09/09 14:26:30;;;;;;;;;;;23.60;44.50;;;;;;8332181;28;19920;-45
2022/09/09 14:30:30;;;;;;;;;;;23.60;44.50;;;;;;8332885;28;20259;-44
2022/09/09 14:34:32;;;;;;;;;;;23.60;45.00;;;;;;8332597;28;19913;-44
2022/09/09 14:38:34;;;;;;;;;;;23.60;44.40;;;;;;8332398;28;19925;-44
2022/09/09 14:42:34;;;;;;;;;;;23.60;44.40;;;;;;8332618;28;20357;-44
2022/09/09 14:46:35;;;;;;;;;;;23.60;44.40;;;;;;8332286;28;19913;-45
2022/09/09 14:50:39;;;;;;;;;;;23.60;44.40;;;;;;8331592;28;20246;-44
2022/09/09 14:54:40;;;;;;;;;;;23.60;44.40;;;;;;8331944;28;20275;-44
2022/09/09 14:58:40;;;;;;;;;;;23.70;44.40;;;;;;8332364;28;19929;-45
2022/09/09 15:02:41;;;;;;;;;;;23.60;44.30;;;;;;8331400;28;19921;-44
2022/09/09 15:06:42;;;;;;;;;;;23.60;44.30;;;;;;8331982;28;19918;-44
2022/09/09 15:10:44;;;;;;;;;;;23.70;44.40;;;;;;8331634;28;20430;-44
2022/09/09 15:14:45;;;;;;;;;;;23.70;44.40;;;;;;8330997;28;20441;-45
2022/09/09 15:18:46;;;;;;;;;;;23.70;44.40;;;;;;8331579;28;19926;-45
2022/09/09 15:22:46;;;;;;;;;;;23.70;44.30;;;;;;8331089;28;19963;-42
2022/09/09 15:26:47;;;;;;;;;;;23.70;44.30;;;;;;8330536;28;20432;-43
2022/09/09 15:30:48;;;;;;;;;;;23.70;44.30;;;;;;8331028;28;19913;-43
2022/09/09 15:34:51;;;;;;;;;;;23.70;44.30;;;;;;8330781;28;19917;-43
2022/09/09 15:38:52;;;;;;;;;;;23.70;44.30;;;;;;8329872;28;19921;-44
2022/09/09 15:42:53;;;;;;;;;;;23.70;44.30;;;;;;8330925;28;20377;-45
2022/09/09 15:46:53;;;;;;;;;;;23.70;44.30;;;;;;8330645;28;19953;-45
2022/09/09 15:51:02;;;;;;;;;;;23.70;44.30;;;;;;8330277;28;20336;-44
2022/09/09 15:55:02;;;;;;;;;;;23.70;44.30;;;;;;8330703;28;19920;-44
2022/09/09 15:59:03;;;;;;;;;;;23.70;44.30;;;;;;8330528;28;19921;-44
2022/09/09 16:03:03;;;;;;;;;;;23.70;44.20;;;;;;8329891;28;19928;-44
2022/09/09 16:07:04;;;;;;;;;;;23.70;44.20;;;;;;8327885;28;19976;-43
2022/09/09 16:11:09;;;;;;;;;;;23.70;44.20;;;;;;8307513;28;19970;-43
2022/09/09 16:15:10;;;;;;;;;;;23.70;44.20;;;;;;8329710;28;19913;-44
2022/09/09 16:19:12;;;;;;;;;;;23.70;44.20;;;;;;8330345;28;20377;-47
2022/09/09 16:23:12;;;;;;;;;;;23.60;44.20;;;;;;8330189;28;20016;-44
2022/09/09 16:27:13;;;;;;;;;;;23.70;44.20;;;;;;8329204;28;19917;-43
2022/09/09 16:31:21;;;;;;;;;;;23.60;44.20;;;;;;8330004;28;19928;-45
2022/09/09 16:35:22;;;;;;;;;;;23.60;44.20;;;;;;8329234;28;19921;-45
2022/09/09 16:39:22;;;;;;;;;;;23.60;44.20;;;;;;8329738;28;19921;-44
2022/09/09 16:43:22;;;;;;;;;;;23.60;44.20;;;;;;8329572;28;19917;-44
2022/09/09 16:47:23;;;;;;;;;;;23.60;44.20;;;;;;8330217;28;19928;-44
2022/09/09 16:51:26;;;;;;;;;;;23.60;44.20;;;;;;8335929;28;19921;-44
2022/09/09 16:55:27;;;;;;;;;;;23.60;44.30;;;;;;8335861;28;19974;-44
2022/09/09 16:59:27;;;;;;;;;;;23.60;44.30;;;;;;8335557;28;19925;-43
2022/09/09 17:03:27;;;;;;;;;;;23.60;44.20;;;;;;8335545;28;20000;-44
2022/09/09 17:07:28;;;;;;;;;;;23.60;44.20;;;;;;8335497;28;19913;-43
2022/09/09 17:11:29;;;;;;;;;;;23.50;44.30;;;;;;8335015;28;19987;-44
2022/09/09 17:15:30;;;;;;;;;;;23.60;44.30;;;;;;8335244;28;19966;-44
2022/09/09 17:19:31;;;;;;;;;;;23.50;44.30;;;;;;8335324;28;19931;-45
2022/09/09 17:23:31;;;;;;;;;;;23.60;44.40;;;;;;8334608;28;20000;-45
2022/09/09 17:27:32;;;;;;;;;;;23.50;44.30;;;;;;8334867;28;20334;-46
2022/09/09 17:31:33;;;;;;;;;;;23.50;44.30;;;;;;8334872;28;19921;-44
2022/09/09 17:35:34;;;;;;;;;;;23.50;44.30;;;;;;8334157;28;19932;-44
2022/09/09 17:39:35;;;;;;;;;;;23.50;44.30;;;;;;8334833;28;19929;-43
2022/09/09 17:43:36;;;;;;;;;;;23.50;44.30;;;;;;8334316;28;19917;-43
2022/09/09 17:47:37;;;;;;;;;;;23.50;44.40;;;;;;8333812;28;19917;-44
2022/09/09 17:51:38;;;;;;;;;;;23.40;44.30;;;;;;8334224;28;20309;-44
2022/09/09 17:55:38;;;;;;;;;;;23.40;44.90;;;;;;8333991;28;20298;-43
2022/09/09 17:59:40;;;;;;;;;;;23.40;44.30;;;;;;8332705;28;20004;-43
2022/09/09 18:03:46;;;;;;;;;;;23.40;44.30;;;;;;8333862;28;19917;-42
2022/09/09 18:07:47;;;;;;;;;;;23.40;44.40;;;;;;8333599;28;19913;-43
2022/09/09 18:11:49;;;;;;;;;;;23.40;44.40;;;;;;8333104;28;19917;-45
2022/09/09 18:15:49;;;;;;;;;;;23.40;44.90;;;;;;8333277;28;19936;-43
2022/09/09 18:19:50;;;;;;;;;;;23.40;44.40;;;;;;8333528;28;19968;-44
2022/09/09 18:23:51;;;;;;;;;;;23.40;44.40;;;;;;8332753;28;19924;-44
2022/09/09 18:27:53;;;;;;;;;;;23.40;44.30;;;;;;8333175;28;19963;-44
2022/09/09 18:31:54;;;;;;;;;;;23.40;44.40;;;;;;8332818;28;19970;-44
2022/09/09 18:35:55;;;;;;;;;;;23.40;44.40;;;;;;8332338;28;19921;-43
2022/09/09 18:39:56;;;;;;;;;;;23.40;44.40;;;;;;8332952;28;19925;-43
2022/09/09 18:43:57;;;;;;;;;;;23.40;44.30;;;;;;8332475;28;20342;-44
2022/09/09 18:47:58;;;;;;;;;;;23.40;44.30;;;;;;8332039;28;19929;-44
2022/09/09 18:51:58;;;;;;;;;;;23.40;44.30;;;;;;8340764;28;20360;-44
2022/09/09 18:56:06;;;;;;;;;;;23.40;44.40;;;;;;8365420;28;19928;-44
2022/09/09 19:00:08;;;;;;;;;;;23.40;44.40;;;;;;8364588;28;20365;-44
2022/09/09 19:04:10;;;;;;;;;;;23.40;44.30;;;;;;8365209;28;19917;-44
2022/09/09 19:08:10;;;;;;;;;;;23.40;44.90;;;;;;8360276;28;20386;-45
2022/09/09 19:12:11;;;;;;;;;;;23.30;44.30;;;;;;8330958;28;19925;-44
2022/09/09 19:16:13;;;;;;;;;;;23.30;44.30;;;;;;8331812;28;19917;-46
2022/09/09 19:20:15;;;;;;;;;;;23.30;44.30;;;;;;8331645;28;20347;-44
2022/09/09 19:24:17;;;;;;;;;;;23.30;44.30;;;;;;8330935;28;19925;-43
2022/09/09 19:28:17;;;;;;;;;;;23.30;44.40;;;;;;8331234;28;19924;-44
2022/09/09 19:32:18;;;;;;;;;;;23.30;44.30;;;;;;8330588;28;20370;-44
2022/09/09 19:36:18;;;;;;;;;;;23.30;44.30;;;;;;8330766;28;19921;-45
2022/09/09 19:40:20;;;;;;;;;;;23.30;44.30;;;;;;8331224;28;20400;-43
2022/09/09 19:44:23;;;;;;;;;;;23.30;44.30;;;;;;8329695;28;21284;-43
2022/09/09 19:48:25;;;;;;;;;;;23.30;44.30;;;;;;8331038;28;20332;-44
2022/09/09 19:52:26;;;;;;;;;;;23.30;44.40;;;;;;8330947;28;19947;-44
2022/09/09 19:56:27;;;;;;;;;;;23.30;44.30;;;;;;8330241;28;19967;-46
2022/09/09 20:00:28;;;;;;;;;;;23.30;44.30;;;;;;8331007;28;19975;-43
2022/09/09 20:04:28;;;;;;;;;;;23.30;44.30;;;;;;8330441;28;19941;-43
2022/09/09 20:08:29;;;;;;;;;;;23.30;44.30;;;;;;8328557;28;19931;-46
2022/09/09 20:12:30;;;;;;;;;;;23.30;44.30;;;;;;8330302;28;19917;-44
2022/09/09 20:16:32;;;;;;;;;;;23.30;44.40;;;;;;8330540;28;20336;-44
2022/09/09 20:20:32;;;;;;;;;;;23.30;44.40;;;;;;8329892;28;19925;-45
2022/09/09 20:24:33;;;;;;;;;;;23.20;44.40;;;;;;8335293;28;19923;-44
2022/09/09 20:28:34;;;;;;;;;;;23.20;44.30;;;;;;8336923;28;19921;-45
2022/09/09 20:32:35;;;;;;;;;;;23.20;44.30;;;;;;8336252;28;19921;-44
2022/09/09 20:36:36;;;;;;;;;;;23.20;44.40;;;;;;8336812;28;20435;-44
2022/09/09 20:40:37;;;;;;;;;;;23.20;44.30;;;;;;8336228;28;19926;-45
2022/09/09 20:44:37;;;;;;;;;;;23.20;44.30;;;;;;8335921;28;19921;-45
2022/09/09 20:48:38;;;;;;;;;;;23.20;44.30;;;;;;8336360;28;20295;-44
2022/09/09 20:52:38;;;;;;;;;;;23.20;44.40;;;;;;8335995;28;19960;-45
2022/09/09 20:56:41;;;;;;;;;;;23.20;44.30;;;;;;8335798;28;19924;-46
2022/09/09 21:00:41;;;;;;;;;;;23.20;44.40;;;;;;8335642;28;20016;-44
2022/09/09 21:04:43;;;;;;;;;;;23.20;44.40;;;;;;8335650;28;19924;-43
2022/09/09 21:08:44;;;;;;;;;;;23.20;44.40;;;;;;8335023;28;19924;-44
2022/09/09 21:12:45;;;;;;;;;;;23.20;44.40;;;;;;8335518;28;19939;-45
2022/09/09 21:16:45;;;;;;;;;;;23.10;44.40;;;;;;8335579;28;19921;-43
2022/09/09 21:20:46;;;;;;;;;;;23.10;44.40;;;;;;8334556;28;19925;-45
2022/09/09 21:24:46;;;;;;;;;;;23.20;44.40;;;;;;8335017;28;19917;-44
2022/09/09 21:28:46;;;;;;;;;;;23.10;44.40;;;;;;8334875;28;19975;-43
2022/09/09 21:32:47;;;;;;;;;;;23.10;44.40;;;;;;8334360;28;19917;-43
2022/09/09 21:36:47;;;;;;;;;;;23.10;44.40;;;;;;8333730;28;19928;-45
2022/09/09 21:40:49;;;;;;;;;;;23.10;44.40;;;;;;8334801;28;20355;-45
2022/09/09 21:44:49;;;;;;;;;;;23.10;44.40;;;;;;8333942;28;19917;-44
2022/09/09 21:48:49;;;;;;;;;;;23.10;44.40;;;;;;8334267;28;20286;-43
2022/09/09 21:52:50;;;;;;;;;;;23.10;44.40;;;;;;8334135;28;20325;-42
2022/09/09 21:56:51;;;;;;;;;;;23.10;44.50;;;;;;8333845;28;20293;-43
2022/09/09 22:00:51;;;;;;;;;;;23.10;44.50;;;;;;8331522;28;19925;-42
2022/09/09 22:04:51;;;;;;;;;;;23.10;44.50;;;;;;8322693;28;19924;-42
2022/09/09 22:08:52;;;;;;;;;;;23.10;44.50;;;;;;8332029;28;19924;-43
2022/09/09 22:12:53;;;;;;;;;;;23.10;44.50;;;;;;8333837;28;19935;-43
2022/09/09 22:16:53;;;;;;;;;;;23.10;45.10;;;;;;8333701;28;20162;-42
2022/09/09 22:20:54;;;;;;;;;;;23.00;44.50;;;;;;8332948;28;19971;-42
2022/09/09 22:24:54;;;;;;;;;;;23.00;44.50;;;;;;8333305;28;19951;-45
2022/09/09 22:28:56;;;;;;;;;;;23.00;44.50;;;;;;8333175;28;19974;-43
2022/09/09 22:32:56;;;;;;;;;;;23.00;44.50;;;;;;8332530;28;19996;-44
2022/09/09 22:36:57;;;;;;;;;;;23.00;44.50;;;;;;8349946;28;19920;-43
2022/09/09 22:40:57;;;;;;;;;;;23.00;44.50;;;;;;8336972;28;19935;-42
2022/09/09 22:44:58;;;;;;;;;;;23.00;44.60;;;;;;8331785;28;19924;-44
2022/09/09 22:49:00;;;;;;;;;;;23.00;44.60;;;;;;8332605;28;20043;-43
2022/09/09 22:53:00;;;;;;;;;;;23.00;44.60;;;;;;8332255;28;19917;-43
2022/09/09 22:57:01;;;;;;;;;;;22.90;44.60;;;;;;8331970;28;19914;-44
2022/09/09 23:01:06;;;;;;;;;;;22.90;44.60;;;;;;8332006;28;20011;-42
2022/09/09 23:05:07;;;;;;;;;;;22.90;44.60;;;;;;8332066;28;19913;-44
2022/09/09 23:09:09;;;;;;;;;;;22.90;44.60;;;;;;8331310;28;20214;-44
2022/09/09 23:13:09;;;;;;;;;;;22.90;44.60;;;;;;8331801;28;19913;-44
2022/09/09 23:17:10;;;;;;;;;;;22.90;44.60;;;;;;8331763;28;19925;-43
2022/09/09 23:21:11;;;;;;;;;;;22.90;44.60;;;;;;8330861;28;19932;-44
2022/09/09 23:25:12;;;;;;;;;;;22.90;44.60;;;;;;8331242;28;19971;-44
2022/09/09 23:29:13;;;;;;;;;;;22.90;44.60;;;;;;8331239;28;19917;-45
2022/09/09 23:33:14;;;;;;;;;;;22.90;44.60;;;;;;8330814;28;19917;-44